Saint-Felicien, Canada
Current Conditions -  °F | °C
As of 1:00 PM on Sunday 21 Dec 2014 (Local Time) from CYRJ Reporting Station
Snow Showers Snow Showers  
Wind Chill:   Ceiling: 10000
Heat Index:   Visibility: 20mi
Dew Point:   Wind: 2mph
Humidity: 78%   Direction: NA
Pressure: 30.34"   Gusts: NA
Location:  48.66°N, 72.45°W
Report Text: CYRJ 211800Z VRB02KT 20SM -SHSN FEW020 BKN100 M15/M18 A3034 RMK SC2AC5 SLP294
Loading
Personal Weather Stations






























Interactive Weather Map New forecast layout! Learn more

10-Day Weather Forecast

Advertisements
Track Severe Weather on mobile